createdAt,value
2022-09-15T00:01:05.688Z,18.29
2022-09-15T00:05:19.881Z,18.29
2022-09-15T00:09:33.273Z,18.32
2022-09-15T00:13:47.528Z,18.28
2022-09-15T00:18:00.954Z,18.19
2022-09-15T00:22:14.296Z,18.13
2022-09-15T00:26:29.079Z,18.20
2022-09-15T00:30:47.570Z,18.13
2022-09-15T00:35:00.931Z,18.12
2022-09-15T00:39:14.474Z,18.07
2022-09-15T00:43:52.388Z,18.09
2022-09-15T00:48:07.200Z,17.95
2022-09-15T00:52:28.616Z,17.94
2022-09-15T00:56:43.461Z,18.01
2022-09-15T01:01:03.999Z,18.05
2022-09-15T01:05:19.812Z,18.06
2022-09-15T01:09:40.290Z,18.12
2022-09-15T01:13:53.778Z,18.22
2022-09-15T01:18:28.508Z,18.25
2022-09-15T01:23:15.562Z,18.24
2022-09-15T01:28:06.475Z,18.19
2022-09-15T01:32:49.422Z,18.21
2022-09-15T01:37:08.089Z,18.23
2022-09-15T01:41:30.539Z,18.18
2022-09-15T01:45:45.393Z,18.17
2022-09-15T01:50:15.965Z,18.12
2022-09-15T01:54:35.240Z,18.13
2022-09-15T01:58:50.561Z,18.00
2022-09-15T02:03:16.872Z,17.98
2022-09-15T02:07:39.925Z,18.01
2022-09-15T02:12:13.233Z,17.83
2022-09-15T02:16:34.801Z,17.89
2022-09-15T02:20:53.152Z,17.94
2022-09-15T02:25:12.082Z,18.00
2022-09-15T02:29:27.466Z,18.03
2022-09-15T02:33:45.098Z,18.14
2022-09-15T02:37:59.278Z,17.99
2022-09-15T02:42:12.615Z,18.08
2022-09-15T02:46:25.719Z,18.03
2022-09-15T02:50:39.898Z,18.05
2022-09-15T02:54:52.993Z,18.05
2022-09-15T02:59:06.034Z,18.02
2022-09-15T03:03:19.848Z,18.03
2022-09-15T03:07:32.935Z,18.00
2022-09-15T03:11:46.087Z,17.94
2022-09-15T03:15:59.409Z,17.97
2022-09-15T03:20:16.583Z,18.04
2022-09-15T03:24:30.357Z,18.04
2022-09-15T03:28:43.634Z,18.00
2022-09-15T03:32:57.050Z,18.12
2022-09-15T03:37:10.368Z,18.15
2022-09-15T03:41:23.980Z,18.20
2022-09-15T03:45:38.719Z,18.19
2022-09-15T03:49:51.908Z,18.20
2022-09-15T03:54:06.224Z,18.21
2022-09-15T03:58:21.291Z,18.24
2022-09-15T04:02:34.824Z,18.25
2022-09-15T04:06:49.985Z,18.22
2022-09-15T04:11:10.690Z,18.33
2022-09-15T04:15:25.284Z,18.38
2022-09-15T04:19:38.565Z,18.28
2022-09-15T04:23:54.812Z,18.30
2022-09-15T04:28:09.204Z,18.26
2022-09-15T04:32:23.287Z,18.25
2022-09-15T04:36:43.013Z,18.25
2022-09-15T04:40:56.294Z,18.21
2022-09-15T04:45:10.011Z,18.33
2022-09-15T04:49:23.639Z,18.30
2022-09-15T04:53:38.187Z,18.39
2022-09-15T04:57:54.063Z,18.42
2022-09-15T05:02:07.233Z,18.40
2022-09-15T05:06:23.404Z,18.47
2022-09-15T05:10:36.456Z,18.51
2022-09-15T05:14:49.629Z,18.52
2022-09-15T05:19:04.034Z,18.49
2022-09-15T05:23:17.090Z,18.46
2022-09-15T05:27:36.002Z,18.53
2022-09-15T05:31:49.170Z,18.53
2022-09-15T05:36:04.976Z,18.61
2022-09-15T05:40:18.610Z,18.56
2022-09-15T05:44:32.382Z,18.63
2022-09-15T05:48:46.527Z,18.63
2022-09-15T05:52:59.650Z,18.67
2022-09-15T05:57:12.831Z,18.63
2022-09-15T06:01:28.783Z,18.63
2022-09-15T06:05:42.220Z,18.62
2022-09-15T06:09:55.509Z,18.65
2022-09-15T06:14:08.540Z,18.74
2022-09-15T06:18:21.571Z,18.85
2022-09-15T06:22:34.876Z,18.95
2022-09-15T06:26:48.126Z,19.06
2022-09-15T06:31:01.381Z,19.05
2022-09-15T06:35:14.771Z,19.16
2022-09-15T06:39:27.862Z,19.27
2022-09-15T06:43:41.183Z,19.30
2022-09-15T06:48:07.600Z,19.39
2022-09-15T06:52:27.559Z,19.39
2022-09-15T06:56:40.838Z,19.31
2022-09-15T07:00:54.067Z,19.28
2022-09-15T07:05:07.544Z,19.33
2022-09-15T07:09:20.599Z,19.21
2022-09-15T07:13:34.013Z,19.16
2022-09-15T07:17:47.222Z,19.26
2022-09-15T07:22:00.590Z,19.24
2022-09-15T07:26:19.563Z,19.14
2022-09-15T07:30:32.534Z,19.29
2022-09-15T07:34:46.043Z,19.31
2022-09-15T07:38:59.502Z,19.24
2022-09-15T07:43:12.730Z,19.48
2022-09-15T07:47:25.761Z,19.68
2022-09-15T07:51:39.007Z,19.83
2022-09-15T07:55:56.225Z,20.22
2022-09-15T08:00:10.098Z,20.58
2022-09-15T08:04:25.331Z,20.94
2022-09-15T08:08:39.864Z,20.94
2022-09-15T08:12:53.783Z,20.96
2022-09-15T08:17:11.273Z,21.03
2022-09-15T08:21:24.801Z,21.11
2022-09-15T08:25:39.935Z,21.34
2022-09-15T08:29:53.037Z,21.38
2022-09-15T08:34:07.725Z,21.50
2022-09-15T08:38:21.012Z,21.55
2022-09-15T08:42:34.262Z,21.67
2022-09-15T08:46:57.392Z,21.48
2022-09-15T08:51:23.701Z,21.75
2022-09-15T08:55:43.901Z,21.70
2022-09-15T08:59:57.213Z,21.73
2022-09-15T09:04:19.113Z,21.78
2022-09-15T09:08:59.169Z,21.52
2022-09-15T09:13:32.069Z,21.30
2022-09-15T09:18:07.692Z,20.88
2022-09-15T09:22:26.752Z,20.89
2022-09-15T09:26:40.708Z,21.03
2022-09-15T09:30:55.765Z,20.78
2022-09-15T09:35:30.421Z,20.90
2022-09-15T09:39:53.402Z,20.56
2022-09-15T09:44:13.112Z,20.58
2022-09-15T09:48:28.426Z,21.37
2022-09-15T09:52:41.578Z,22.29
2022-09-15T09:56:57.052Z,23.51
2022-09-15T10:01:15.825Z,23.87
2022-09-15T10:05:29.380Z,23.70
2022-09-15T10:09:51.311Z,23.87
2022-09-15T10:14:04.606Z,23.69
2022-09-15T10:18:37.678Z,24.10
2022-09-15T10:22:51.283Z,23.52
2022-09-15T10:27:34.786Z,22.38
2022-09-15T10:31:48.117Z,22.03
2022-09-15T10:36:15.481Z,22.17
2022-09-15T10:40:48.878Z,23.06
2022-09-15T10:45:33.752Z,23.58
2022-09-15T10:50:00.042Z,22.98
2022-09-15T10:54:36.104Z,24.65
2022-09-15T10:58:56.518Z,25.19
2022-09-15T11:03:37.330Z,24.17
2022-09-15T11:08:09.408Z,22.61
2022-09-15T11:12:47.273Z,22.34
2022-09-15T11:21:27.459Z,22.56
2022-09-15T11:25:45.959Z,24.15
2022-09-15T11:30:08.474Z,23.83
2022-09-15T11:34:40.071Z,23.93
2022-09-15T11:39:20.183Z,23.17
2022-09-15T11:44:16.701Z,22.50
2022-09-15T11:49:05.335Z,22.18
2022-09-15T11:53:32.821Z,23.44
2022-09-15T11:57:52.654Z,23.66
2022-09-15T12:02:31.097Z,23.39
2022-09-15T12:06:54.874Z,23.16
2022-09-15T12:11:15.059Z,24.29
2022-09-15T12:15:34.439Z,23.67
2022-09-15T12:20:01.215Z,23.15
2022-09-15T12:24:44.700Z,23.34
2022-09-15T12:29:26.951Z,23.25
2022-09-15T12:33:43.121Z,22.52
2022-09-15T12:37:58.679Z,23.48
2022-09-15T12:42:28.616Z,22.41
2022-09-15T12:46:42.197Z,22.46
2022-09-15T12:51:03.057Z,22.50
2022-09-15T12:55:24.205Z,22.21
2022-09-15T12:59:39.263Z,22.39
2022-09-15T13:03:54.554Z,22.65
2022-09-15T13:08:35.438Z,22.49
2022-09-15T13:12:55.988Z,23.77
2022-09-15T13:17:26.077Z,23.01
2022-09-15T13:21:42.790Z,22.47
2022-09-15T13:25:58.558Z,22.40
2022-09-15T13:30:39.851Z,22.68
2022-09-15T13:35:20.708Z,22.58
2022-09-15T13:39:46.367Z,22.00
2022-09-15T13:44:25.267Z,22.04
2022-09-15T13:49:04.081Z,22.04
2022-09-15T13:53:22.878Z,21.76
2022-09-15T14:02:16.079Z,21.79
2022-09-15T14:06:37.840Z,22.00
2022-09-15T14:10:53.655Z,21.72
2022-09-15T14:15:07.979Z,21.55
2022-09-15T14:19:31.980Z,21.58
2022-09-15T14:23:51.484Z,21.20
2022-09-15T14:28:06.454Z,20.86
2022-09-15T14:32:19.876Z,20.15
2022-09-15T14:36:34.754Z,19.20
2022-09-15T14:40:55.365Z,18.86
2022-09-15T14:50:12.919Z,18.38
2022-09-15T14:54:33.036Z,18.17
2022-09-15T14:58:53.570Z,17.78
2022-09-15T15:03:21.373Z,17.58
2022-09-15T15:07:38.113Z,17.36
2022-09-15T15:11:54.119Z,17.47
2022-09-15T15:16:14.806Z,17.79
2022-09-15T15:20:31.101Z,17.51
2022-09-15T15:24:46.944Z,17.69
2022-09-15T15:29:00.036Z,17.86
2022-09-15T15:33:28.810Z,18.14
2022-09-15T15:37:42.222Z,18.29
2022-09-15T15:42:06.071Z,17.92
2022-09-15T15:46:46.102Z,17.64
2022-09-15T15:51:00.303Z,17.49
2022-09-15T15:55:19.169Z,17.23
2022-09-15T15:59:32.223Z,17.09
2022-09-15T16:03:45.267Z,16.97
2022-09-15T16:08:05.324Z,16.94
2022-09-15T16:12:18.609Z,16.89
2022-09-15T16:16:31.728Z,16.92
2022-09-15T16:20:45.523Z,16.59
2022-09-15T16:25:36.202Z,16.30
2022-09-15T16:29:49.220Z,16.14
2022-09-15T16:34:02.276Z,16.01
2022-09-15T16:38:15.401Z,15.84
2022-09-15T16:42:28.603Z,15.67
2022-09-15T16:46:41.623Z,15.64
2022-09-15T16:51:24.768Z,15.44
2022-09-15T16:55:37.691Z,15.13
2022-09-15T16:59:50.812Z,14.97
2022-09-15T17:04:04.870Z,14.95
2022-09-15T17:08:20.062Z,15.06
2022-09-15T17:12:33.413Z,15.08
2022-09-15T17:16:48.186Z,15.04
2022-09-15T17:21:03.396Z,15.01
2022-09-15T17:25:25.214Z,15.04
2022-09-15T17:29:38.297Z,14.90
2022-09-15T17:33:52.385Z,14.85
2022-09-15T17:38:07.274Z,14.77
2022-09-15T17:42:20.689Z,14.75
2022-09-15T17:46:33.847Z,14.74
2022-09-15T17:50:49.396Z,14.73
2022-09-15T17:55:02.949Z,14.74
2022-09-15T17:59:21.413Z,14.72
2022-09-15T18:03:37.502Z,14.73
2022-09-15T18:07:51.332Z,15.01
2022-09-15T18:12:05.215Z,14.90
2022-09-15T18:16:18.331Z,14.79
2022-09-15T18:20:34.399Z,14.80
2022-09-15T18:24:47.564Z,14.76
2022-09-15T18:29:00.735Z,14.69
2022-09-15T18:33:20.655Z,14.85
2022-09-15T18:37:33.867Z,14.65
2022-09-15T18:41:47.013Z,14.83
2022-09-15T18:46:01.846Z,14.81
2022-09-15T18:50:19.376Z,14.54
2022-09-15T18:54:35.617Z,14.54
2022-09-15T18:58:49.095Z,14.68
2022-09-15T19:03:06.003Z,14.55
2022-09-15T19:07:19.211Z,14.62
2022-09-15T19:11:32.368Z,14.57
2022-09-15T19:15:48.079Z,14.62
2022-09-15T19:20:02.543Z,14.81
2022-09-15T19:24:16.866Z,14.78
2022-09-15T19:28:30.060Z,14.69
2022-09-15T19:32:43.268Z,14.58
2022-09-15T19:36:56.672Z,14.54
2022-09-15T19:41:13.673Z,14.49
2022-09-15T19:45:27.363Z,14.38
2022-09-15T19:49:40.631Z,14.25
2022-09-15T19:53:56.893Z,14.17
2022-09-15T19:58:09.927Z,14.21
2022-09-15T20:02:23.236Z,14.15
2022-09-15T20:06:36.958Z,14.15
2022-09-15T20:10:50.162Z,14.07
2022-09-15T20:15:03.306Z,14.11
2022-09-15T20:19:16.565Z,14.21
2022-09-15T20:23:29.857Z,14.03
2022-09-15T20:27:44.015Z,13.98
2022-09-15T20:31:57.251Z,14.00
2022-09-15T20:36:17.225Z,14.00
2022-09-15T20:40:30.504Z,14.29
2022-09-15T20:44:43.618Z,14.12
2022-09-15T20:48:56.660Z,14.15
2022-09-15T20:53:09.708Z,14.18
2022-09-15T20:57:22.751Z,14.20
2022-09-15T21:01:46.079Z,14.29
2022-09-15T21:06:04.823Z,14.46
2022-09-15T21:10:18.195Z,14.30
2022-09-15T21:14:31.352Z,14.42
2022-09-15T21:18:45.592Z,14.25
2022-09-15T21:22:58.830Z,14.16
2022-09-15T21:27:31.379Z,14.16
2022-09-15T21:31:44.602Z,14.11
2022-09-15T21:36:12.290Z,14.03
2022-09-15T21:40:25.975Z,13.87
2022-09-15T21:44:39.870Z,13.81
2022-09-15T21:48:53.279Z,13.71
2022-09-15T21:53:08.298Z,13.63
2022-09-15T21:57:21.869Z,13.51
2022-09-15T22:01:35.553Z,13.59
2022-09-15T22:05:48.923Z,13.49
2022-09-15T22:10:02.114Z,13.58
2022-09-15T22:14:15.665Z,13.56
2022-09-15T22:18:29.182Z,13.62
2022-09-15T22:22:45.099Z,13.54
2022-09-15T22:26:58.758Z,13.57
2022-09-15T22:31:13.655Z,13.60
2022-09-15T22:35:26.699Z,13.61
2022-09-15T22:39:57.913Z,13.67
2022-09-15T22:44:18.893Z,13.44
2022-09-15T22:48:32.134Z,13.55
2022-09-15T22:52:45.470Z,13.36
2022-09-15T22:56:58.634Z,13.41
2022-09-15T23:01:14.660Z,13.55
2022-09-15T23:05:27.812Z,13.22
2022-09-15T23:09:40.958Z,13.05
2022-09-15T23:13:56.231Z,12.98
2022-09-15T23:18:09.531Z,12.94
2022-09-15T23:22:23.023Z,12.86
2022-09-15T23:26:36.266Z,12.93
2022-09-15T23:30:54.684Z,12.82
2022-09-15T23:35:09.763Z,12.73
2022-09-15T23:39:23.223Z,12.69
2022-09-15T23:43:36.533Z,12.69
2022-09-15T23:47:49.559Z,12.70
2022-09-15T23:52:02.820Z,12.84
2022-09-15T23:56:16.289Z,12.88
